Flight Track Log - Related Links

Times and Time Zones

All times are in EDT time to prevent confusion due to time zone crossing. See the GJS3644 flight status page for this flight to view local times or setup timezone preferences in your user account.

Time Position Orientation Groundspeed Altitude Reporting Facility
EDT Latitude Longitude Course Direction KTS MPH feet Rate Location/Type
Thu 10:20:21 PM 39.8167 -104.6167 76° East 202 232 6,900  Level Denver TRACON
Thu 10:21:06 PM 39.8286 -104.5531 76° East 225 259 8,400 1,682 Climbing Denver Center
Thu 10:22:08 PM 39.8481 -104.4586 75° East 269 310 9,900 1,403 Climbing Denver Center
Thu 10:23:10 PM 39.8750 -104.3519 72° East 308 354 11,300 1,355 Climbing Denver Center
Thu 10:24:12 PM 39.9078 -104.2206 72° East 355 409 12,700 1,500 Climbing Denver Center
Thu 10:25:14 PM 39.9414 -104.0900 71° East 379 436 14,400 1,742 Climbing Denver Center
Thu 10:26:16 PM 39.9783 -103.9450 72° East 391 450 16,300 1,694 Climbing Denver Center
Thu 10:27:18 PM 40.0117 -103.8069 72° East 400 460 17,900 1,548 Climbing Denver Center
Thu 10:28:20 PM 40.0383 -103.6639 76° East 390 449 19,500 1,500 Climbing Denver Center
Thu 10:29:22 PM 40.0636 -103.5164 77° East 411 473 21,000 1,452 Climbing Denver Center
Thu 10:30:24 PM 40.0869 -103.3675 78° East 418 481 22,500 1,355 Climbing Denver Center
Thu 10:31:26 PM 40.1106 -103.2150 79° East 426 490 23,800 1,210 Climbing Denver Center
Thu 10:32:28 PM 40.1406 -103.0272 78° East 441 507 25,000 1,065 Climbing Denver Center
Thu 10:33:30 PM 40.1664 -102.8661 78° East 450 518 26,000 968 Climbing Denver Center
Thu 10:34:32 PM 40.1914 -102.7036 79° East 453 521 27,000 1,016 Climbing Denver Center
Thu 10:35:34 PM 40.2203 -102.5256 78° East 457 526 28,100 1,016 Climbing Denver Center
Thu 10:36:36 PM 40.2447 -102.3656 79° East 463 533 29,100 1,016 Climbing Denver Center
Thu 10:37:38 PM 40.2719 -102.1775 79° East 470 541 30,200 1,016 Climbing Denver Center
Thu 10:38:40 PM 40.2964 -102.0178 79° East 470 541 31,200 1,016 Climbing Denver Center
Thu 10:39:42 PM 40.3236 -101.8311 79° East 469 540 32,300 871 Climbing Denver Center
Thu 10:40:44 PM 40.3475 -101.6711 79° East 468 539 33,000 726 Climbing Denver Center
Thu 10:41:46 PM 40.3772 -101.5133 76° East 468 539 33,800 919 Climbing Denver Center
Thu 10:42:48 PM 40.4136 -101.3292 75° East 468 539 34,900 1,016 Climbing Denver Center
Thu 10:43:50 PM 40.4444 -101.1731 75° East 466 536 35,900 1,016 Climbing Denver Center
Thu 10:44:52 PM 40.4800 -100.9933 75° East 462 532 37,000 532 Climbing Denver Center
Thu 10:45:54 PM 40.5094 -100.8400 76° East 459 528 37,000  Level Denver Center
Thu 10:46:55 PM 40.5447 -100.6581 76° East 461 531 37,000  Level Denver Center
Thu 10:47:57 PM 40.5750 -100.5014 76° East 463 533 37,000  Level Denver Center
Thu 10:48:59 PM 40.6100 -100.3197 76° East 463 533 37,000  Level Denver Center
Thu 10:50:01 PM 40.6397 -100.1647 76° East 463 533 37,000  Level Denver Center
Thu 10:51:03 PM 40.6742 -99.9808 76° East 463 533 37,000  Level Denver Center
Thu 10:52:05 PM 40.7061 -99.8100 76° East 464 534 37,000  Level Denver Center
Thu 10:53:07 PM 40.7367 -99.6442 76° East 465 535 37,000  Level Denver Center
Thu 10:54:06 PM 40.7667 -99.4806 76° East 463 533 37,000  Level Minneapolis Center
Thu 10:55:08 PM 40.7969 -99.3150 76° East 464 534 37,000  Level Minneapolis Center
Thu 10:56:09 PM 40.8256 -99.1511 77° East 464 534 37,000  Level Minneapolis Center
Thu 10:57:10 PM 40.8558 -98.9753 77° East 461 531 37,000  Level Minneapolis Center
Thu 10:58:12 PM 40.8839 -98.8117 77° East 460 529 37,000  Level Minneapolis Center
Thu 10:59:13 PM 40.9125 -98.6444 77° East 462 532 37,000  Level Minneapolis Center
Thu 11:00:15 PM 40.9433 -98.4767 76° East 467 537 37,000  Level Minneapolis Center
Thu 11:01:16 PM 40.9747 -98.2956 77° East 469 540 37,000  Level Minneapolis Center
Thu 11:02:18 PM 41.0036 -98.1278 77° East 470 541 37,000  Level Minneapolis Center
Thu 11:03:19 PM 41.0317 -97.9592 78° East 470 541 37,000  Level Minneapolis Center
Thu 11:04:20 PM 41.0597 -97.7897 78° East 470 541 37,000  Level Minneapolis Center
Thu 11:05:22 PM 41.0933 -97.5878 77° East 470 541 37,000  Level Minneapolis Center
Thu 11:06:23 PM 41.1217 -97.4197 77° East 470 541 37,000  Level Minneapolis Center
Thu 11:07:25 PM 41.1461 -97.2606 78° East 470 541 37,000  Level Minneapolis Center
Thu 11:08:26 PM 41.1731 -97.0925 78° East 469 540 37,000  Level Minneapolis Center
Thu 11:09:28 PM 41.2008 -96.9250 78° East 468 539 37,000  Level Minneapolis Center
Thu 11:10:29 PM 41.2261 -96.7567 79° East 467 537 37,000  Level Minneapolis Center
Thu 11:11:31 PM 41.2531 -96.5883 78° East 466 536 37,000  Level Minneapolis Center
Thu 11:12:32 PM 41.2839 -96.3881 78° East 465 535 37,000  Level Minneapolis Center
Thu 11:13:34 PM 41.3058 -96.2406 79° East 465 535 37,000  Level Minneapolis Center
Thu 11:14:35 PM 41.3369 -96.0394 78° East 465 535 37,000  Level Minneapolis Center
Thu 11:15:37 PM 41.3611 -95.8714 79° East 465 535 37,000 -488 Level Minneapolis Center
Thu 11:16:38 PM 41.3858 -95.7019 79° East 465 535 36,000 -976 Descending Minneapolis Center
Thu 11:17:40 PM 41.4114 -95.5244 79° East 467 537 35,000 -976 Descending Minneapolis Center
Thu 11:18:41 PM 41.4369 -95.3528 79° East 470 541 34,000 -1,024 Descending Minneapolis Center
Thu 11:19:43 PM 41.4611 -95.1792 79° East 472 543 32,900 -1,024 Descending Minneapolis Center
Thu 11:20:44 PM 41.4858 -95.0028 79° East 480 552 31,900 -927 Descending Minneapolis Center
Thu 11:21:46 PM 41.5125 -94.8231 79° East 490 564 31,000 -439 Descending Minneapolis Center
Thu 11:22:47 PM 41.5367 -94.6414 80° East 496 571 31,000  Level Minneapolis Center
Thu 11:23:49 PM 41.5608 -94.4575 80° East 500 575 31,000  Level Minneapolis Center
Thu 11:24:50 PM 41.5844 -94.2736 80° East 501 577 31,000 -49 Level Minneapolis Center
Thu 11:25:52 PM 41.6150 -94.0553 79° East 501 577 30,900 -829 Descending Minneapolis Center
Thu 11:26:53 PM 41.6392 -93.8719 80° East 502 578 29,300 -1,721 Descending Minneapolis Center
Thu 11:27:54 PM 41.6600 -93.7019 81° East 481 554 27,400 -1,756 Descending Minneapolis Center
Thu 11:28:56 PM 41.6806 -93.5389 80° East 459 528 25,700 -1,561 Descending Minneapolis Center
Thu 11:29:57 PM 41.7014 -93.3739 80° East 457 526 24,200 -976 Descending Minneapolis Center
Thu 11:30:59 PM 41.7225 -93.2097 80° East 455 524 23,700 -1,463 Descending Minneapolis Center
Thu 11:32:00 PM 41.7411 -93.0511 81° East 442 509 21,200 -2,803 Descending Minneapolis Center
Thu 11:33:01 PM 41.7642 -92.8703 80° East 423 487 18,000 -2,902 Descending Minneapolis Center
Thu 11:34:02 PM 41.7814 -92.7200 81° East 420 483 15,300 -2,486 Descending Minneapolis Center
Thu 11:34:52 PM 41.7944 -92.6100 81° East 389 448 13,400 -2,162 Descending Chicago Center
Thu 11:35:53 PM 41.8100 -92.4792 81° East 369 425 11,300 -1,180 Descending Chicago Center
Thu 11:36:54 PM 41.8231 -92.3661 81° East 324 373 11,000 -197 Descending Chicago Center
Thu 11:37:55 PM 41.8350 -92.2561 82° East 302 348 10,900 -738 Descending Chicago Center
Thu 11:38:56 PM 41.8481 -92.1542 80° East 287 330 9,500 -1,721 Descending Chicago Center
Thu 11:39:57 PM 41.8597 -92.0625 80° East 258 297 7,400 -2,115 Descending Chicago Center
Thu 11:40:58 PM 41.8731 -91.9578 80° East 248 285 5,200 -1,663 Descending Chicago Center
Thu 11:43:01 PM 41.8856 -91.8189 83° East 192 221 2,300 -1,207 Descending Chicago Center
Thu 11:44:02 PM 41.8858 -91.7708 90° East 144 166 1,500 -639 Descending Chicago Center
Thu 11:45:03 PM 41.8847 -91.7156 92° East 143 165 1,000 -295 Descending Chicago Center
Thu 11:46:04 PM 41.8858 -91.6719 88° East 143 165 900 -98 Descending Chicago Center

Login

Don't have an account? Register now (free) for customized features, flight alerts, and more!